Time;durP1;ratioP1;P1;durP2;ratioP2;P2;SDS_P1;SDS_P2;PMS_P1;PMS_P2;Temp;Humidity;BMP_temperature;BMP_pressure;BME280_temperature;BME280_humidity;BME280_pressure;Samples;Min_cycle;Max_cycle;Signal;HPM_P1;HPM_P2
2021/06/24 00:00:22;;;;;;;13.77;11.88;;;18.10;94.50;;;;;;2105917;28;20024;-71
2021/06/24 00:01:22;;;;;;;13.15;11.73;;;18.10;94.90;;;;;;2105361;28;20027;-74
2021/06/24 00:02:23;;;;;;;13.10;11.77;;;18.10;95.10;;;;;;2105746;28;20020;-73
2021/06/24 00:03:29;;;;;;;14.90;12.30;;;18.10;95.60;;;;;;2105714;28;20107;-73
2021/06/24 00:04:30;;;;;;;13.75;12.07;;;18.10;95.70;;;;;;2114668;28;20121;-72
2021/06/24 00:05:31;;;;;;;14.23;11.93;;;18.10;95.90;;;;;;2102007;28;20397;-72
2021/06/24 00:06:31;;;;;;;13.77;12.27;;;18.10;96.20;;;;;;2102962;28;20061;-72
2021/06/24 00:07:32;;;;;;;13.98;11.60;;;18.10;95.60;;;;;;2106274;28;20036;-72
2021/06/24 00:08:33;;;;;;;14.30;12.00;;;18.10;95.20;;;;;;2105534;28;20040;-73
2021/06/24 00:09:34;;;;;;;13.98;11.48;;;18.00;95.30;;;;;;2105715;28;20459;-72
2021/06/24 00:10:37;;;;;;;16.05;12.35;;;18.00;95.50;;;;;;2113955;28;20027;-72
2021/06/24 00:11:37;;;;;;;16.13;12.60;;;18.00;95.40;;;;;;2114641;28;20020;-73
2021/06/24 00:12:38;;;;;;;16.38;13.10;;;18.00;95.20;;;;;;2108220;28;20024;-73
2021/06/24 00:13:39;;;;;;;18.25;13.57;;;18.00;94.80;;;;;;2112824;28;20028;-73
2021/06/24 00:14:40;;;;;;;15.90;12.77;;;17.90;94.70;;;;;;2096715;28;20028;-73
2021/06/24 00:15:41;;;;;;;15.93;13.23;;;17.90;94.70;;;;;;2088965;28;20017;-73
2021/06/24 00:16:41;;;;;;;20.40;13.38;;;17.90;94.90;;;;;;2105834;28;20024;-74
2021/06/24 00:17:43;;;;;;;16.70;13.23;;;17.90;95.50;;;;;;2105924;28;20028;-73
2021/06/24 00:18:43;;;;;;;14.80;13.13;;;17.90;95.50;;;;;;2098264;28;20029;-74
2021/06/24 00:19:44;;;;;;;18.58;13.43;;;17.90;95.50;;;;;;2106251;28;20020;-72
2021/06/24 00:20:45;;;;;;;18.30;13.90;;;17.90;95.70;;;;;;2105943;28;20128;-73
2021/06/24 00:21:46;;;;;;;17.23;13.75;;;17.80;95.80;;;;;;2105679;28;20039;-75
2021/06/24 00:22:46;;;;;;;16.58;13.25;;;17.80;96.20;;;;;;2105868;28;20024;-72
2021/06/24 00:23:47;;;;;;;17.80;13.40;;;17.70;96.30;;;;;;2106831;28;20612;-73
2021/06/24 00:24:47;;;;;;;17.10;13.43;;;17.70;96.40;;;;;;2113906;28;20132;-74
2021/06/24 00:25:49;;;;;;;15.35;13.30;;;17.70;96.80;;;;;;2105698;28;20414;-73
2021/06/24 00:26:49;;;;;;;17.40;12.45;;;17.60;96.70;;;;;;2105826;28;20032;-74
2021/06/24 00:27:50;;;;;;;17.17;13.50;;;17.60;97.00;;;;;;2114666;28;20031;-73
2021/06/24 00:28:51;;;;;;;20.42;14.80;;;17.60;97.00;;;;;;2105544;28;20024;-73
2021/06/24 00:29:51;;;;;;;19.33;14.70;;;17.50;97.20;;;;;;2105332;28;20035;-72
2021/06/24 00:30:52;;;;;;;16.52;13.93;;;17.50;97.40;;;;;;2113999;28;20030;-74
2021/06/24 00:31:53;;;;;;;19.40;14.35;;;17.50;97.60;;;;;;2105887;28;20115;-74
2021/06/24 00:32:53;;;;;;;19.17;14.15;;;17.40;98.00;;;;;;2106732;28;20450;-73
2021/06/24 00:33:54;;;;;;;16.17;13.32;;;17.40;98.30;;;;;;2114665;28;20027;-73
2021/06/24 00:35:00;;;;;;;18.65;13.93;;;17.40;98.70;;;;;;2114202;28;20019;-74
2021/06/24 00:36:00;;;;;;;18.65;14.30;;;17.40;99.20;;;;;;2107823;28;20533;-73
2021/06/24 00:37:01;;;;;;;16.35;13.95;;;17.40;99.10;;;;;;2114633;28;20115;-75
2021/06/24 00:38:04;;;;;;;15.07;13.57;;;17.40;99.40;;;;;;2114686;28;20023;-74
2021/06/24 00:39:05;;;;;;;16.45;13.75;;;17.40;99.40;;;;;;2105086;28;20387;-73
2021/06/24 00:40:06;;;;;;;17.40;14.20;;;17.40;99.50;;;;;;2105452;28;20119;-73
2021/06/24 00:41:07;;;;;;;16.70;14.07;;;17.40;99.40;;;;;;2113919;28;20793;-73
2021/06/24 00:42:08;;;;;;;16.73;13.68;;;17.30;99.40;;;;;;2105295;28;20024;-73
2021/06/24 00:43:11;;;;;;;16.23;14.32;;;17.30;99.30;;;;;;2105488;28;20035;-73
2021/06/24 00:44:12;;;;;;;17.00;14.73;;;17.30;99.50;;;;;;2114557;28;20034;-74
2021/06/24 00:45:14;;;;;;;17.73;14.70;;;17.30;99.70;;;;;;2114139;28;20454;-73
2021/06/24 00:46:15;;;;;;;19.65;15.18;;;17.30;99.90;;;;;;2105355;28;20022;-73
2021/06/24 00:47:17;;;;;;;16.42;14.25;;;17.40;99.90;;;;;;2105361;28;20024;-74
2021/06/24 00:48:18;;;;;;;19.15;14.88;;;17.30;99.90;;;;;;2105733;28;20606;-73
2021/06/24 00:49:20;;;;;;;15.88;14.18;;;17.30;99.90;;;;;;2097156;28;20025;-73
2021/06/24 00:50:21;;;;;;;16.63;14.82;;;17.30;99.90;;;;;;2105559;28;20054;-74
2021/06/24 00:51:22;;;;;;;18.48;15.75;;;17.30;99.90;;;;;;2114094;28;20057;-72
2021/06/24 00:52:22;;;;;;;17.67;14.82;;;17.30;99.90;;;;;;2097246;28;20565;-73
2021/06/24 00:53:23;;;;;;;18.52;16.52;;;17.30;99.90;;;;;;2097064;28;20082;-73
2021/06/24 00:54:24;;;;;;;20.00;16.77;;;17.30;99.90;;;;;;2114060;28;20546;-73
2021/06/24 00:55:40;;;;;;;19.55;16.30;;;17.30;99.90;;;;;;2104960;28;20886;-74
2021/06/24 00:56:41;;;;;;;18.35;16.15;;;17.30;99.90;;;;;;2107742;28;20028;-74
2021/06/24 00:57:42;;;;;;;18.67;15.80;;;17.30;99.90;;;;;;2107229;28;20016;-73
2021/06/24 00:58:43;;;;;;;18.50;16.17;;;17.30;99.90;;;;;;2106235;28;20051;-74
2021/06/24 00:59:45;;;;;;;23.73;16.98;;;17.20;99.90;;;;;;2114014;28;20024;-73
2021/06/24 01:00:48;;;;;;;21.30;16.50;;;17.20;99.90;;;;;;2105156;28;20060;-73
2021/06/24 01:01:50;;;;;;;18.73;15.80;;;17.20;99.90;;;;;;2105744;28;20032;-73
2021/06/24 01:02:51;;;;;;;21.63;17.08;;;17.20;99.90;;;;;;2097676;28;20178;-73
2021/06/24 01:03:52;;;;;;;19.77;16.52;;;17.20;99.90;;;;;;2097426;28;20033;-74
2021/06/24 01:04:53;;;;;;;21.60;16.70;;;17.10;99.90;;;;;;2098255;28;20029;-75
2021/06/24 01:05:53;;;;;;;24.33;17.33;;;17.10;99.90;;;;;;2092634;28;20041;-76
2021/06/24 01:06:55;;;;;;;20.00;17.23;;;17.10;99.90;;;;;;2108209;28;20490;-74
2021/06/24 01:07:58;;;;;;;23.48;17.58;;;17.10;99.90;;;;;;2100737;28;20100;-74
2021/06/24 01:09:00;;;;;;;23.30;17.92;;;17.10;99.90;;;;;;2097114;28;20024;-73
2021/06/24 01:10:01;;;;;;;21.27;17.15;;;17.10;99.90;;;;;;2098770;28;20032;-73
2021/06/24 01:11:01;;;;;;;22.40;16.80;;;17.00;99.90;;;;;;2112652;28;20385;-74
2021/06/24 01:12:06;;;;;;;21.05;17.77;;;17.00;99.90;;;;;;2105472;28;20043;-73
2021/06/24 01:13:08;;;;;;;21.90;17.02;;;17.10;99.90;;;;;;2097698;28;20032;-72
2021/06/24 01:14:15;;;;;;;22.17;17.90;;;17.00;99.90;;;;;;2089972;28;20021;-73
2021/06/24 01:15:16;;;;;;;21.92;17.65;;;17.00;99.90;;;;;;2097999;28;20467;-74
2021/06/24 01:16:18;;;;;;;26.02;18.65;;;17.00;99.90;;;;;;2097330;28;20017;-73
2021/06/24 01:17:20;;;;;;;25.67;18.38;;;17.00;99.90;;;;;;2097647;28;20095;-74
2021/06/24 01:18:21;;;;;;;24.58;18.38;;;17.00;99.90;;;;;;2105171;28;20088;-72
2021/06/24 01:19:22;;;;;;;27.17;19.08;;;17.00;99.90;;;;;;2096620;28;20641;-73
2021/06/24 01:20:25;;;;;;;25.88;18.45;;;17.00;99.90;;;;;;2105116;28;20055;-72
2021/06/24 01:21:26;;;;;;;25.35;19.00;;;17.00;99.90;;;;;;2104681;28;20031;-72
2021/06/24 01:22:27;;;;;;;28.17;18.77;;;16.90;99.90;;;;;;2104980;28;20058;-72
2021/06/24 01:23:28;;;;;;;24.98;19.17;;;16.90;99.90;;;;;;2105921;28;20036;-72
2021/06/24 01:24:32;;;;;;;29.27;19.80;;;16.90;99.90;;;;;;2104536;28;20756;-72
2021/06/24 01:25:34;;;;;;;29.00;19.75;;;16.80;99.90;;;;;;2096991;28;20024;-72
2021/06/24 01:26:38;;;;;;;24.13;19.17;;;16.70;99.90;;;;;;2099015;28;20485;-73
2021/06/24 01:27:38;;;;;;;26.27;20.67;;;16.60;99.90;;;;;;2107502;28;20024;-73
2021/06/24 01:28:39;;;;;;;29.00;20.63;;;16.60;99.90;;;;;;2106594;28;20032;-71
2021/06/24 01:29:40;;;;;;;27.15;20.58;;;16.50;99.90;;;;;;2105107;28;20043;-73
2021/06/24 01:30:42;;;;;;;28.48;20.77;;;16.50;99.90;;;;;;2104734;28;20076;-72
2021/06/24 01:31:43;;;;;;;28.63;20.92;;;16.40;99.90;;;;;;2105093;28;20048;-72
2021/06/24 01:32:44;;;;;;;32.97;22.13;;;16.40;99.90;;;;;;2105541;28;20600;-73
2021/06/24 01:33:45;;;;;;;34.70;22.60;;;16.40;99.90;;;;;;2105139;28;20036;-72
2021/06/24 01:34:46;;;;;;;29.83;21.60;;;16.40;99.90;;;;;;2104967;28;20479;-74
2021/06/24 01:35:46;;;;;;;30.67;21.10;;;16.40;99.90;;;;;;2096811;28;20515;-74
2021/06/24 01:36:47;;;;;;;28.20;20.77;;;16.30;99.90;;;;;;2097169;28;20115;-74
2021/06/24 01:37:48;;;;;;;29.15;21.10;;;16.30;99.90;;;;;;2106010;28;20024;-75
2021/06/24 01:38:50;;;;;;;32.05;22.70;;;16.30;99.90;;;;;;2114444;28;20817;-74
2021/06/24 01:39:56;;;;;;;30.15;21.90;;;16.30;99.90;;;;;;2098213;28;20031;-74
2021/06/24 01:40:59;;;;;;;30.73;23.08;;;16.30;99.90;;;;;;2104777;28;20024;-75
2021/06/24 01:42:01;;;;;;;33.58;23.85;;;16.30;99.90;;;;;;2097200;28;20024;-74
2021/06/24 01:43:09;;;;;;;35.33;24.20;;;16.40;99.90;;;;;;2098049;28;20043;-73
2021/06/24 01:44:36;;;;;;;31.65;24.30;;;16.40;99.90;;;;;;2104969;28;20020;-74
2021/06/24 01:45:48;;;;;;;31.98;24.92;;;16.40;99.90;;;;;;2107819;28;20115;-75
2021/06/24 01:46:49;;;;;;;35.47;25.38;;;16.40;99.90;;;;;;2104700;28;20032;-74
2021/06/24 01:47:50;;;;;;;33.50;25.10;;;16.40;99.90;;;;;;2105078;28;20032;-75
2021/06/24 01:48:53;;;;;;;28.17;23.77;;;16.40;99.90;;;;;;2089166;28;20063;-73
2021/06/24 01:49:54;;;;;;;30.35;23.90;;;16.40;99.90;;;;;;2096214;28;20086;-74
2021/06/24 01:50:58;;;;;;;31.15;23.40;;;16.40;99.90;;;;;;2096278;28;20115;-75
2021/06/24 01:51:58;;;;;;;33.95;24.63;;;16.40;99.90;;;;;;2096433;28;20041;-73
2021/06/24 01:52:59;;;;;;;33.25;24.00;;;16.40;99.90;;;;;;2104867;28;20031;-72
2021/06/24 01:54:00;;;;;;;29.67;22.42;;;16.40;99.90;;;;;;2104688;28;20055;-73
2021/06/24 01:55:01;;;;;;;27.83;21.90;;;16.40;99.90;;;;;;2104401;28;20035;-72
2021/06/24 01:56:09;;;;;;;30.52;21.95;;;16.40;99.90;;;;;;2104795;28;20519;-74
2021/06/24 01:57:17;;;;;;;26.10;21.27;;;16.40;99.90;;;;;;2104890;28;20043;-72
2021/06/24 01:58:22;;;;;;;26.73;20.30;;;16.30;99.90;;;;;;2104953;28;20036;-73
2021/06/24 01:59:46;;;;;;;28.67;21.48;;;16.30;99.90;;;;;;2099448;28;20107;-73
2021/06/24 02:00:50;;;;;;;27.73;21.08;;;16.30;99.90;;;;;;2096397;28;20442;-73
2021/06/24 02:01:55;;;;;;;31.00;21.23;;;16.30;99.90;;;;;;2105706;28;20054;-74
2021/06/24 02:03:16;;;;;;;27.98;20.73;;;16.30;99.90;;;;;;2096891;28;20471;-74
2021/06/24 02:04:16;;;;;;;30.48;21.42;;;16.20;99.90;;;;;;2099281;28;20163;-74
2021/06/24 02:05:17;;;;;;;32.08;22.45;;;16.20;99.90;;;;;;2112762;28;20020;-73
2021/06/24 02:06:18;;;;;;;28.92;21.52;;;16.20;99.90;;;;;;2101558;28;20540;-73
2021/06/24 02:07:22;;;;;;;25.65;20.45;;;16.20;99.90;;;;;;2096880;28;20021;-74
2021/06/24 02:08:41;;;;;;;31.70;21.42;;;16.20;99.90;;;;;;2098852;28;20127;-73
2021/06/24 02:09:52;;;;;;;26.85;21.10;;;16.10;99.90;;;;;;2076272;28;20060;-74
2021/06/24 02:10:55;;;;;;;30.10;22.45;;;16.10;99.90;;;;;;2089267;28;20427;-73
2021/06/24 02:11:57;;;;;;;34.17;24.13;;;16.10;99.90;;;;;;2105061;28;20822;-74
2021/06/24 02:13:04;;;;;;;31.73;22.05;;;16.10;99.90;;;;;;2097703;28;20103;-73
2021/06/24 02:14:04;;;;;;;29.05;22.33;;;16.10;99.90;;;;;;2104950;28;20032;-73
2021/06/24 02:15:08;;;;;;;31.02;23.17;;;16.10;99.90;;;;;;2111435;28;20008;-74
2021/06/24 02:16:10;;;;;;;30.42;22.98;;;16.20;99.90;;;;;;2104820;28;20028;-73
2021/06/24 02:17:11;;;;;;;31.27;21.75;;;16.20;99.90;;;;;;2096570;28;20023;-73
2021/06/24 02:18:14;;;;;;;27.45;21.83;;;16.20;99.90;;;;;;2104854;28;20410;-73
2021/06/24 02:19:19;;;;;;;29.63;22.85;;;16.10;99.90;;;;;;2104867;28;20519;-73
2021/06/24 02:20:43;;;;;;;24.30;20.60;;;16.20;99.90;;;;;;2099207;28;20039;-73
2021/06/24 02:21:59;;;;;;;27.17;22.42;;;16.20;99.90;;;;;;2098451;28;20025;-75
2021/06/24 02:23:02;;;;;;;28.88;23.80;;;16.20;99.90;;;;;;2096850;28;20063;-72
2021/06/24 02:24:08;;;;;;;29.95;23.05;;;16.20;99.90;;;;;;2104822;28;20028;-72
2021/06/24 02:25:19;;;;;;;32.65;22.95;;;16.20;99.90;;;;;;2097423;28;20051;-73
2021/06/24 02:26:40;;;;;;;28.25;21.30;;;16.20;99.90;;;;;;2099445;28;20024;-72
2021/06/24 02:28:10;;;;;;;30.95;22.15;;;16.30;99.90;;;;;;2079588;28;20108;-73
2021/06/24 02:29:20;;;;;;;28.60;22.42;;;16.20;99.90;;;;;;2080576;28;20539;-73
2021/06/24 02:30:23;;;;;;;26.13;22.13;;;16.20;99.90;;;;;;2113084;28;20098;-75
2021/06/24 02:31:27;;;;;;;26.92;21.55;;;16.10;99.90;;;;;;2104470;28;20052;-73
2021/06/24 02:32:28;;;;;;;30.52;24.05;;;16.10;99.90;;;;;;2096688;28;20118;-73
2021/06/24 02:33:39;;;;;;;32.47;24.38;;;16.20;99.90;;;;;;2098364;28;20012;-71
2021/06/24 02:35:05;;;;;;;32.85;23.67;;;16.10;99.90;;;;;;2104247;28;20036;-73
2021/06/24 02:36:16;;;;;;;31.40;23.08;;;16.10;99.90;;;;;;2095241;28;20026;-72
2021/06/24 02:37:17;;;;;;;28.65;22.65;;;16.10;99.90;;;;;;2105065;28;20410;-73
2021/06/24 02:38:36;;;;;;;31.98;23.98;;;16.10;99.90;;;;;;2107874;28;20031;-73
2021/06/24 02:39:36;;;;;;;29.67;22.90;;;16.00;99.90;;;;;;2111946;28;20020;-73
2021/06/24 02:40:37;;;;;;;30.35;23.55;;;16.00;99.90;;;;;;2095274;28;20028;-74
2021/06/24 02:41:40;;;;;;;37.08;24.02;;;16.10;99.90;;;;;;2097285;28;20090;-73
2021/06/24 02:42:42;;;;;;;32.80;24.30;;;16.10;99.90;;;;;;2105076;28;20024;-73
2021/06/24 02:43:42;;;;;;;36.03;24.92;;;16.10;99.90;;;;;;2087942;28;20032;-73
2021/06/24 02:44:44;;;;;;;32.53;23.92;;;16.10;99.90;;;;;;2088102;28;20121;-74
2021/06/24 02:45:45;;;;;;;29.15;23.20;;;16.10;99.90;;;;;;2096653;28;20071;-72
2021/06/24 02:46:53;;;;;;;31.70;24.70;;;16.10;99.90;;;;;;2097572;28;20017;-73
2021/06/24 02:47:54;;;;;;;31.92;24.15;;;16.10;99.90;;;;;;2096809;28;20020;-76
2021/06/24 02:48:57;;;;;;;28.00;22.63;;;16.10;99.90;;;;;;2105572;28;20099;-74
2021/06/24 02:50:22;;;;;;;30.45;22.70;;;16.10;99.90;;;;;;2109494;28;20020;-75
2021/06/24 02:51:26;;;;;;;29.63;22.52;;;16.10;99.90;;;;;;2104480;28;20122;-73
2021/06/24 02:52:53;;;;;;;33.35;24.70;;;16.10;99.90;;;;;;2097792;28;20035;-73
2021/06/24 02:53:54;;;;;;;31.50;23.75;;;16.10;99.90;;;;;;2097828;28;20020;-72
2021/06/24 02:54:56;;;;;;;29.40;23.42;;;16.10;99.90;;;;;;2105140;28;20020;-73
2021/06/24 02:56:08;;;;;;;27.58;22.00;;;16.10;99.90;;;;;;2104549;28;20034;-72
2021/06/24 02:57:15;;;;;;;29.70;22.00;;;16.10;99.90;;;;;;2105558;28;20024;-74
2021/06/24 02:58:34;;;;;;;38.45;24.77;;;16.10;99.90;;;;;;2104525;28;20036;-75
2021/06/24 02:59:42;;;;;;;32.28;23.73;;;16.10;99.90;;;;;;2099514;28;20703;-74
2021/06/24 03:00:43;;;;;;;34.75;24.58;;;16.10;99.90;;;;;;2104701;28;20019;-72
2021/06/24 03:02:06;;;;;;;29.27;22.88;;;16.10;99.90;;;;;;2105379;28;20027;-73
2021/06/24 03:03:10;;;;;;;28.00;22.60;;;16.10;99.90;;;;;;2113891;28;20024;-72
2021/06/24 03:04:29;;;;;;;30.02;24.50;;;16.10;99.90;;;;;;2104528;28;20022;-73
2021/06/24 03:05:30;;;;;;;34.83;25.52;;;16.10;99.90;;;;;;2090984;28;20939;-73
2021/06/24 03:06:33;;;;;;;31.95;25.02;;;16.00;99.90;;;;;;2093852;28;20020;-72
2021/06/24 03:07:35;;;;;;;35.38;26.05;;;16.00;99.90;;;;;;2096402;28;20028;-74
2021/06/24 03:08:56;;;;;;;31.80;24.55;;;16.00;99.90;;;;;;2089234;28;20033;-73
2021/06/24 03:10:00;;;;;;;30.17;23.02;;;16.00;99.90;;;;;;2113434;28;20028;-73
2021/06/24 03:11:03;;;;;;;34.00;25.27;;;16.00;99.90;;;;;;2095854;28;20020;-73
2021/06/24 03:12:07;;;;;;;37.40;26.77;;;16.00;99.90;;;;;;2096709;28;20440;-73
2021/06/24 03:13:09;;;;;;;30.35;24.40;;;16.00;99.90;;;;;;2096565;28;20024;-73
2021/06/24 03:14:09;;;;;;;31.33;24.35;;;16.00;99.90;;;;;;2104715;28;20368;-74
2021/06/24 03:15:14;;;;;;;32.30;24.27;;;16.00;99.90;;;;;;2096269;28;20027;-73
2021/06/24 03:16:16;;;;;;;36.10;27.02;;;16.10;99.90;;;;;;2097247;28;20029;-73
2021/06/24 03:17:16;;;;;;;37.92;26.73;;;16.00;99.90;;;;;;2105489;28;20020;-73
2021/06/24 03:18:17;;;;;;;30.85;25.17;;;16.00;99.90;;;;;;2107012;28;20012;-75
2021/06/24 03:19:19;;;;;;;31.27;25.20;;;16.00;99.90;;;;;;2107197;28;20013;-74
2021/06/24 03:20:30;;;;;;;33.63;25.48;;;16.00;99.90;;;;;;2109399;28;20118;-75
2021/06/24 03:21:32;;;;;;;33.28;26.13;;;16.00;99.90;;;;;;2107774;28;20028;-73
2021/06/24 03:22:34;;;;;;;29.20;23.52;;;16.00;99.90;;;;;;2108320;28;20044;-73
2021/06/24 03:23:35;;;;;;;33.58;26.70;;;16.00;99.90;;;;;;2108012;28;20093;-73
2021/06/24 03:24:36;;;;;;;31.20;25.50;;;16.00;99.90;;;;;;2098975;28;20399;-75
2021/06/24 03:25:38;;;;;;;29.30;24.13;;;16.00;99.90;;;;;;2098950;28;20136;-72
2021/06/24 03:26:41;;;;;;;27.95;23.60;;;16.00;99.90;;;;;;2106632;28;20055;-73
2021/06/24 03:27:43;;;;;;;34.10;25.48;;;16.00;99.90;;;;;;2107263;28;20066;-74
2021/06/24 03:29:05;;;;;;;30.35;23.88;;;16.00;99.90;;;;;;2092140;28;20089;-73
2021/06/24 03:30:15;;;;;;;31.80;25.58;;;16.00;99.90;;;;;;2096896;28;20032;-71
2021/06/24 03:31:17;;;;;;;33.67;25.85;;;16.00;99.90;;;;;;2097986;28;20086;-72
2021/06/24 03:32:18;;;;;;;32.08;26.02;;;16.00;99.90;;;;;;2106552;28;20019;-72
2021/06/24 03:33:18;;;;;;;32.40;27.27;;;15.90;99.90;;;;;;2106197;28;20031;-73
2021/06/24 03:34:19;;;;;;;30.15;25.17;;;15.90;99.90;;;;;;2106175;28;20510;-73
2021/06/24 03:35:22;;;;;;;37.63;27.35;;;15.90;99.90;;;;;;2111365;28;20077;-73
2021/06/24 03:36:22;;;;;;;33.33;26.45;;;15.90;99.90;;;;;;2102949;28;20115;-73
2021/06/24 03:37:23;;;;;;;33.55;26.17;;;15.90;99.90;;;;;;2106963;28;20034;-73
2021/06/24 03:38:24;;;;;;;33.13;25.67;;;15.90;99.90;;;;;;2116249;28;20457;-73
2021/06/24 03:39:27;;;;;;;35.30;25.92;;;15.90;99.90;;;;;;2116014;28;20107;-73
2021/06/24 03:40:28;;;;;;;32.72;25.95;;;15.90;99.90;;;;;;2111570;28;20111;-74
2021/06/24 03:41:31;;;;;;;34.58;26.38;;;15.90;99.90;;;;;;2109181;28;20653;-73
2021/06/24 03:42:33;;;;;;;34.00;26.02;;;15.90;99.90;;;;;;2115298;28;20023;-73
2021/06/24 03:43:33;;;;;;;32.30;25.65;;;15.90;99.90;;;;;;2106938;28;20062;-73
2021/06/24 03:44:35;;;;;;;27.90;24.00;;;15.90;99.90;;;;;;2106158;28;20051;-73
2021/06/24 03:45:37;;;;;;;33.60;25.80;;;15.90;99.90;;;;;;2100166;28;20017;-73
2021/06/24 03:46:38;;;;;;;35.45;27.80;;;15.90;99.90;;;;;;2104663;28;20024;-73
2021/06/24 03:47:41;;;;;;;35.72;26.90;;;15.90;99.90;;;;;;2097705;28;20024;-73
2021/06/24 03:48:42;;;;;;;31.77;26.67;;;15.90;99.90;;;;;;2097857;28;20017;-73
2021/06/24 03:49:53;;;;;;;30.55;25.05;;;15.80;99.90;;;;;;2099471;28;20039;-72
2021/06/24 03:50:56;;;;;;;33.63;26.42;;;15.80;99.90;;;;;;2097938;28;20020;-75
2021/06/24 03:51:57;;;;;;;30.20;24.55;;;15.80;99.90;;;;;;2106603;28;20518;-73
2021/06/24 03:52:59;;;;;;;31.05;26.52;;;15.80;99.90;;;;;;2106390;28;20032;-73
2021/06/24 03:54:01;;;;;;;36.90;26.80;;;15.80;99.90;;;;;;2097721;28;20115;-74
2021/06/24 03:55:07;;;;;;;32.25;25.85;;;15.80;99.90;;;;;;2089055;28;20780;-75
2021/06/24 03:56:10;;;;;;;34.15;25.95;;;15.80;99.90;;;;;;2098701;28;20028;-73
2021/06/24 03:57:16;;;;;;;27.92;24.90;;;15.90;99.90;;;;;;2106399;28;20015;-75
2021/06/24 03:58:33;;;;;;;32.47;25.70;;;15.90;99.90;;;;;;2100833;28;20521;-72
2021/06/24 03:59:35;;;;;;;30.30;24.52;;;15.90;99.90;;;;;;2097639;28;20465;-72
2021/06/24 04:00:40;;;;;;;28.77;24.13;;;15.90;99.90;;;;;;2097244;28;20078;-74
2021/06/24 04:01:46;;;;;;;29.13;23.17;;;15.80;99.90;;;;;;2106200;28;20111;-73
2021/06/24 04:02:48;;;;;;;28.42;23.63;;;15.90;99.90;;;;;;2106139;28;20418;-73
2021/06/24 04:04:04;;;;;;;26.90;23.35;;;15.90;99.90;;;;;;2106753;28;20442;-73
2021/06/24 04:05:14;;;;;;;26.75;22.52;;;15.90;99.90;;;;;;2095644;28;20027;-72
2021/06/24 04:06:19;;;;;;;26.50;22.63;;;15.90;99.90;;;;;;2094668;28;20056;-73
2021/06/24 04:07:22;;;;;;;35.17;27.33;;;15.90;99.90;;;;;;2097929;28;20021;-73
2021/06/24 04:08:23;;;;;;;33.45;25.23;;;15.90;99.90;;;;;;2097386;28;20016;-74
2021/06/24 04:09:24;;;;;;;29.02;23.30;;;15.90;99.90;;;;;;2097246;28;20491;-72
2021/06/24 04:10:27;;;;;;;33.65;25.27;;;16.00;99.90;;;;;;2105370;28;20405;-72
2021/06/24 04:11:28;;;;;;;25.35;22.65;;;16.00;99.90;;;;;;2106136;28;20487;-72
2021/06/24 04:12:35;;;;;;;27.98;22.42;;;16.00;99.90;;;;;;2105884;28;20416;-72
2021/06/24 04:13:56;;;;;;;27.73;23.15;;;16.00;99.90;;;;;;2107316;28;20028;-73
2021/06/24 04:15:17;;;;;;;;;;;16.00;99.90;;;;;;2114778;28;20505;-73
2021/06/24 04:16:18;;;;;;;29.20;22.52;;;16.00;99.90;;;;;;2111336;28;19908;-75
2021/06/24 04:17:20;;;;;;;27.75;23.23;;;16.00;99.90;;;;;;2106311;28;20016;-73
2021/06/24 04:18:23;;;;;;;25.40;22.10;;;16.00;99.90;;;;;;2097284;28;20022;-73
2021/06/24 04:19:24;;;;;;;32.67;24.80;;;16.00;99.90;;;;;;2106346;28;20016;-74
2021/06/24 04:20:27;;;;;;;31.08;24.30;;;16.00;99.90;;;;;;2115014;28;20019;-73
2021/06/24 04:21:28;;;;;;;29.20;24.27;;;16.00;99.90;;;;;;2115024;28;20115;-74
2021/06/24 04:22:29;;;;;;;28.88;23.95;;;15.90;99.90;;;;;;2109614;28;20027;-73
2021/06/24 04:23:43;;;;;;;34.95;26.17;;;16.00;99.90;;;;;;2106707;28;20027;-74
2021/06/24 04:24:46;;;;;;;30.95;24.10;;;15.90;99.90;;;;;;2108762;28;20040;-75
2021/06/24 04:25:47;;;;;;;30.05;23.83;;;15.90;99.90;;;;;;2103587;28;20029;-74
2021/06/24 04:26:48;;;;;;;29.20;23.67;;;15.90;99.90;;;;;;2101198;28;20515;-74
2021/06/24 04:27:53;;;;;;;26.27;23.13;;;16.00;99.90;;;;;;2094874;28;20536;-74
2021/06/24 04:28:55;;;;;;;33.13;25.92;;;16.00;99.90;;;;;;2109369;28;20039;-73
2021/06/24 04:29:56;;;;;;;33.17;26.73;;;16.00;99.90;;;;;;2089617;28;20648;-75
2021/06/24 04:30:57;;;;;;;31.92;25.42;;;16.00;99.90;;;;;;2097499;28;20445;-73
2021/06/24 04:31:58;;;;;;;30.80;25.92;;;16.00;99.90;;;;;;2106140;28;20024;-73
2021/06/24 04:32:59;;;;;;;27.85;24.58;;;15.90;99.90;;;;;;2098400;28;20028;-72
2021/06/24 04:34:12;;;;;;;30.20;24.85;;;16.00;99.90;;;;;;2092054;28;20025;-72
2021/06/24 04:35:38;;;;;;;32.00;24.75;;;16.00;99.90;;;;;;2098557;28;20036;-72
2021/06/24 04:36:47;;;;;;;31.88;24.85;;;15.90;99.90;;;;;;2096061;28;20075;-72
2021/06/24 04:37:54;;;;;;;30.33;24.92;;;15.90;99.90;;;;;;2098874;28;20074;-71
2021/06/24 04:38:55;;;;;;;33.55;25.98;;;15.90;99.90;;;;;;2097135;28;20025;-72
2021/06/24 04:39:56;;;;;;;30.92;25.08;;;15.90;99.90;;;;;;2105124;28;20396;-72
2021/06/24 04:41:04;;;;;;;34.58;25.52;;;15.90;99.90;;;;;;2097303;28;20563;-72
2021/06/24 04:42:17;;;;;;;27.98;23.58;;;16.00;99.90;;;;;;2105507;28;20024;-72
2021/06/24 04:43:37;;;;;;;32.67;25.75;;;16.00;99.90;;;;;;2105403;28;20512;-72
2021/06/24 04:44:39;;;;;;;30.08;25.38;;;15.90;99.90;;;;;;2096054;28;20028;-73
2021/06/24 04:45:39;;;;;;;33.50;25.55;;;15.90;99.90;;;;;;2096976;28;20302;-72
2021/06/24 04:47:00;;;;;;;32.58;25.60;;;15.90;99.90;;;;;;2105096;28;20091;-72
2021/06/24 04:48:01;;;;;;;30.17;26.10;;;15.80;99.90;;;;;;2105981;28;20081;-72
2021/06/24 04:49:03;;;;;;;30.20;25.27;;;15.80;99.90;;;;;;2106268;28;20149;-72
2021/06/24 04:50:36;;;;;;;;;;;15.90;99.90;;;;;;2105168;28;20055;-72
2021/06/24 04:51:37;;;;;;;30.85;24.65;;;15.90;99.90;;;;;;2105158;28;19964;-72
2021/06/24 04:52:38;;;;;;;27.65;23.80;;;15.90;99.90;;;;;;2096821;28;20071;-72
2021/06/24 04:53:40;;;;;;;31.85;25.20;;;15.90;99.90;;;;;;2097476;28;20372;-72
2021/06/24 04:54:47;;;;;;;34.83;26.88;;;16.00;99.90;;;;;;2104526;28;20063;-71
2021/06/24 04:55:48;;;;;;;31.45;26.48;;;15.90;99.90;;;;;;2096821;28;20066;-72
2021/06/24 04:56:53;;;;;;;28.55;24.67;;;15.90;99.90;;;;;;2089389;28;20020;-72
2021/06/24 04:58:03;;;;;;;32.38;25.90;;;15.90;99.90;;;;;;2099931;28;20026;-72
2021/06/24 04:59:10;;;;;;;30.70;25.13;;;16.00;99.90;;;;;;2114436;28;20032;-72
2021/06/24 05:00:14;;;;;;;29.90;24.95;;;16.00;99.90;;;;;;2114110;28;20108;-72
2021/06/24 05:01:50;;;;;;;28.48;24.20;;;16.00;99.90;;;;;;2114427;28;20126;-72
2021/06/24 05:03:25;;;;;;;27.50;23.30;;;16.00;99.90;;;;;;2102576;28;20544;-72
2021/06/24 05:04:32;;;;;;;31.27;24.42;;;16.00;99.90;;;;;;2104742;28;20024;-71
2021/06/24 05:05:33;;;;;;;30.80;25.60;;;16.00;99.90;;;;;;2101359;28;20451;-71
2021/06/24 05:06:35;;;;;;;32.03;25.85;;;16.00;99.90;;;;;;2105840;28;20035;-71
2021/06/24 05:07:36;;;;;;;29.35;24.58;;;16.00;99.90;;;;;;2104918;28;20069;-71
2021/06/24 05:08:37;;;;;;;26.90;24.00;;;16.00;99.90;;;;;;2105144;28;20016;-71
2021/06/24 05:09:41;;;;;;;30.70;26.40;;;16.00;99.90;;;;;;2105129;28;20024;-71
2021/06/24 05:10:42;;;;;;;35.17;26.10;;;16.00;99.90;;;;;;2104897;28;20597;-72
2021/06/24 05:11:43;;;;;;;28.95;25.05;;;16.00;99.90;;;;;;2105830;28;20032;-71
2021/06/24 05:12:43;;;;;;;31.10;25.02;;;16.00;99.90;;;;;;2104863;28;20044;-73
2021/06/24 05:13:44;;;;;;;31.35;25.23;;;16.00;99.90;;;;;;2104871;28;20030;-72
2021/06/24 05:14:45;;;;;;;30.77;24.83;;;16.00;99.90;;;;;;2105408;28;20747;-72
2021/06/24 05:15:46;;;;;;;28.70;24.70;;;16.00;99.90;;;;;;2105496;28;20020;-71
2021/06/24 05:16:47;;;;;;;27.70;24.00;;;16.00;99.90;;;;;;2105776;28;20068;-73
2021/06/24 05:17:47;;;;;;;28.23;25.15;;;16.00;99.90;;;;;;2105992;28;20066;-72
2021/06/24 05:18:48;;;;;;;28.08;23.85;;;16.00;99.90;;;;;;2105668;28;20578;-73
2021/06/24 05:19:49;;;;;;;29.42;24.33;;;16.10;99.90;;;;;;2104757;28;20028;-72
2021/06/24 05:20:50;;;;;;;27.33;24.40;;;16.10;99.90;;;;;;2104502;28;20035;-71
2021/06/24 05:21:51;;;;;;;25.95;23.13;;;16.10;99.90;;;;;;2096683;28;20108;-72
2021/06/24 05:22:51;;;;;;;32.50;26.10;;;16.10;99.90;;;;;;2105146;28;20491;-72
2021/06/24 05:23:52;;;;;;;28.58;25.48;;;16.10;99.90;;;;;;2104617;28;20127;-72
2021/06/24 05:24:53;;;;;;;27.95;24.92;;;16.10;99.90;;;;;;2096331;28;20044;-73
2021/06/24 05:25:53;;;;;;;34.17;27.90;;;16.20;99.90;;;;;;2104869;28;20052;-72
2021/06/24 05:26:54;;;;;;;37.30;28.58;;;16.20;99.90;;;;;;2104919;28;20042;-72